Time;durP1;ratioP1;P1;durP2;ratioP2;P2;SDS_P1;SDS_P2;PMS_P1;PMS_P2;Temp;Humidity;BMP_temperature;BMP_pressure;BME280_temperature;BME280_humidity;BME280_pressure;Samples;Min_cycle;Max_cycle;Signal;HPM_P1;HPM_P2
2023/09/21 00:02:55;;;;;;;4.20;3.80;;;;;;;13.74;81.65;99510.52;215084;1275;140431;-74
2023/09/21 00:07:59;;;;;;;4.30;3.60;;;;;;;13.71;81.64;99511.03;214971;1276;140959;-74
2023/09/21 00:13:04;;;;;;;4.40;3.70;;;;;;;13.70;81.87;99514.78;215070;1279;140336;-73
2023/09/21 00:18:09;;;;;;;6.50;4.10;;;;;;;13.70;81.88;99508.56;215194;1276;140145;-73
2023/09/21 00:23:14;;;;;;;5.10;4.00;;;;;;;13.69;81.81;99504.48;215114;1277;140217;-73
2023/09/21 00:28:19;;;;;;;5.00;4.10;;;;;;;13.66;81.72;99503.52;215973;1277;141569;-73
2023/09/21 00:33:33;;;;;;;4.40;4.00;;;;;;;13.64;81.78;99501.18;215121;1276;140953;-74
2023/09/21 00:38:37;;;;;;;9.50;4.60;;;;;;;13.62;81.85;99505.09;215130;1276;140204;-74
2023/09/21 00:43:41;;;;;;;4.70;3.70;;;;;;;13.60;81.96;99501.42;214987;1276;139957;-73
2023/09/21 00:48:44;;;;;;;6.50;4.40;;;;;;;13.59;81.88;99501.11;215052;1276;140002;-72
2023/09/21 00:53:48;;;;;;;5.20;4.00;;;;;;;13.57;82.01;99498.79;216898;1276;140224;-74
2023/09/21 00:58:53;;;;;;;4.30;3.80;;;;;;;13.56;82.05;99498.56;215601;1276;140603;-71
2023/09/21 01:03:59;;;;;;;6.80;4.60;;;;;;;13.55;81.97;99494.75;216489;1276;143359;-74
2023/09/21 01:09:04;;;;;;;6.60;4.20;;;;;;;13.54;82.23;99491.91;215696;1276;140595;-73
2023/09/21 01:14:08;;;;;;;9.20;4.90;;;;;;;13.53;82.13;99488.80;216225;1276;140383;-74
2023/09/21 01:19:10;;;;;;;6.40;5.20;;;;;;;13.53;82.18;99487.73;215572;1276;140778;-73
2023/09/21 01:24:16;;;;;;;9.10;4.10;;;;;;;13.56;82.42;99483.58;215899;1276;142280;-73
2023/09/21 01:29:19;;;;;;;11.00;5.60;;;;;;;13.59;82.54;99480.59;215493;1279;140162;-73
2023/09/21 01:34:22;;;;;;;8.50;3.80;;;;;;;13.60;82.48;99474.80;216022;1276;140174;-73
2023/09/21 01:39:25;;;;;;;7.80;5.30;;;;;;;13.60;82.40;99467.25;215076;1276;140654;-73
2023/09/21 01:44:30;;;;;;;10.00;5.70;;;;;;;13.59;82.43;99460.71;215751;1276;140818;-74
2023/09/21 01:49:33;;;;;;;8.10;4.60;;;;;;;13.56;82.62;99453.90;215403;1276;141683;-74
2023/09/21 01:54:38;;;;;;;6.60;4.70;;;;;;;13.58;82.69;99449.73;215235;1279;139913;-74
2023/09/21 01:59:41;;;;;;;5.20;4.50;;;;;;;13.62;82.98;99446.33;214998;1277;139846;-73
2023/09/21 02:04:45;;;;;;;8.50;5.10;;;;;;;13.66;82.84;99444.20;214750;1277;144928;-71
2023/09/21 02:09:48;;;;;;;4.70;4.30;;;;;;;13.70;82.95;99448.56;214941;1276;140137;-74
2023/09/21 02:14:52;;;;;;;7.70;5.50;;;;;;;13.74;82.90;99449.71;215058;1276;139975;-74
2023/09/21 02:19:54;;;;;;;7.00;4.90;;;;;;;13.76;82.78;99445.63;214926;1276;141160;-74
2023/09/21 02:24:57;;;;;;;21.50;5.00;;;;;;;13.77;82.86;99445.19;216465;1275;140617;-74
2023/09/21 02:30:04;;;;;;;7.50;5.10;;;;;;;13.78;82.83;99437.33;215911;1276;141007;-74
2023/09/21 02:35:16;;;;;;;8.50;5.80;;;;;;;13.79;82.98;99436.36;215972;1276;141423;-74
2023/09/21 02:40:21;;;;;;;13.80;6.40;;;;;;;13.80;82.81;99430.10;215132;1276;139945;-73
2023/09/21 02:45:25;;;;;;;7.40;5.10;;;;;;;13.80;82.85;99430.89;214921;1275;141329;-73
2023/09/21 02:50:30;;;;;;;5.60;4.80;;;;;;;13.79;82.75;99422.11;215308;1275;140302;-72
2023/09/21 02:55:34;;;;;;;8.50;4.40;;;;;;;13.79;82.71;99418.95;216072;1276;140582;-72
2023/09/21 03:00:42;;;;;;;7.00;4.80;;;;;;;13.79;82.81;99416.86;215261;1276;139956;-74
2023/09/21 03:05:48;;;;;;;5.70;4.40;;;;;;;13.81;82.78;99414.88;217378;1276;139994;-74
2023/09/21 03:10:54;;;;;;;11.20;6.00;;;;;;;13.80;82.89;99411.34;215010;1277;141091;-73
2023/09/21 03:15:58;;;;;;;8.70;5.50;;;;;;;13.79;82.92;99407.80;215168;1275;141191;-74
2023/09/21 03:21:09;;;;;;;5.60;4.50;;;;;;;13.78;82.70;99401.95;216004;1276;141154;-73
2023/09/21 03:26:18;;;;;;;6.20;4.80;;;;;;;13.76;82.88;99400.34;215547;1276;141103;-74
2023/09/21 03:31:22;;;;;;;6.10;3.80;;;;;;;13.75;82.97;99397.46;215003;1275;141156;-73
2023/09/21 03:36:25;;;;;;;8.10;4.80;;;;;;;13.76;83.22;99398.54;214927;1279;141332;-74
2023/09/21 03:41:29;;;;;;;5.50;4.00;;;;;;;13.76;83.22;99397.14;215321;1276;141693;-74
2023/09/21 03:46:33;;;;;;;4.90;4.40;;;;;;;13.77;83.30;99396.05;215043;1279;142255;-74
2023/09/21 03:51:43;;;;;;;4.90;4.20;;;;;;;13.78;83.53;99388.30;214882;1276;140125;-73
2023/09/21 03:56:47;;;;;;;5.60;4.90;;;;;;;13.79;83.60;99386.95;215248;1276;141372;-73
2023/09/21 04:01:50;;;;;;;5.70;4.30;;;;;;;13.79;83.73;99383.64;215748;1279;141005;-72
2023/09/21 04:06:55;;;;;;;3.50;3.20;;;;;;;13.81;83.70;99379.57;214872;1277;140147;-72
2023/09/21 04:12:00;;;;;;;4.80;4.30;;;;;;;13.85;83.81;99373.32;215750;1276;142008;-73
2023/09/21 04:17:04;;;;;;;4.00;3.50;;;;;;;13.87;83.78;99374.13;214962;1279;140765;-73
2023/09/21 04:22:08;;;;;;;6.20;4.60;;;;;;;13.89;83.81;99369.20;216309;1275;141084;-74
2023/09/21 04:27:12;;;;;;;7.80;5.10;;;;;;;13.91;84.02;99371.13;215238;1276;139989;-73
2023/09/21 04:32:14;;;;;;;6.10;4.60;;;;;;;13.94;83.92;99370.02;215429;1276;141228;-71
2023/09/21 04:37:18;;;;;;;7.00;5.30;;;;;;;13.95;83.95;99365.79;214823;1279;140912;-72
2023/09/21 04:42:22;;;;;;;6.30;5.10;;;;;;;13.97;84.01;99360.38;214774;1277;143281;-75
2023/09/21 04:47:27;;;;;;;5.60;4.10;;;;;;;14.02;84.21;99353.73;217247;1276;152061;-73
2023/09/21 04:52:33;;;;;;;8.00;4.40;;;;;;;14.08;83.94;99357.48;217294;1275;140162;-74
2023/09/21 04:57:37;;;;;;;6.20;4.00;;;;;;;14.16;83.92;99350.52;215485;1277;141476;-74
2023/09/21 05:02:41;;;;;;;6.40;4.60;;;;;;;14.24;83.82;99354.08;217423;1277;141010;-74
2023/09/21 05:07:45;;;;;;;5.30;4.10;;;;;;;14.32;83.75;99354.63;217189;1276;140683;-76
2023/09/21 05:12:48;;;;;;;7.00;4.90;;;;;;;14.41;83.71;99352.64;217199;1276;140750;-72
2023/09/21 05:17:51;;;;;;;6.70;4.40;;;;;;;14.51;83.69;99352.64;214786;1279;139891;-71
2023/09/21 05:22:54;;;;;;;9.90;4.70;;;;;;;14.59;83.51;99348.89;214702;1279;140178;-74
2023/09/21 05:27:59;;;;;;;7.80;5.40;;;;;;;14.68;83.50;99350.53;215114;1276;140647;-71
2023/09/21 05:33:02;;;;;;;6.50;4.30;;;;;;;14.78;83.65;99349.81;215033;1276;140482;-74
2023/09/21 05:38:06;;;;;;;6.00;3.70;;;;;;;14.89;83.53;99355.44;214888;1279;141332;-74
2023/09/21 05:43:15;;;;;;;12.50;4.70;;;;;;;14.98;83.43;99352.56;214689;1279;140488;-68
2023/09/21 05:48:20;;;;;;;6.80;5.10;;;;;;;15.07;83.38;99350.55;215389;1275;142268;-72
2023/09/21 05:53:25;;;;;;;5.60;4.40;;;;;;;15.21;83.36;99348.90;214568;1277;140513;-73
2023/09/21 05:58:30;;;;;;;4.20;3.80;;;;;;;15.34;83.27;99349.42;215128;1279;139914;-74
2023/09/21 06:03:35;;;;;;;4.00;3.60;;;;;;;15.46;83.19;99349.38;215268;1277;139974;-74
2023/09/21 06:08:41;;;;;;;4.20;3.50;;;;;;;15.60;83.14;99344.60;215026;1276;140174;-72
2023/09/21 06:13:46;;;;;;;5.40;3.80;;;;;;;15.75;83.08;99345.06;215462;1279;140059;-73
2023/09/21 06:18:49;;;;;;;4.30;3.90;;;;;;;15.92;83.04;99345.55;215322;1277;140296;-72
2023/09/21 06:23:53;;;;;;;7.60;4.10;;;;;;;16.09;82.95;99347.96;214732;1277;140485;-72
2023/09/21 06:28:59;;;;;;;7.90;4.80;;;;;;;16.28;82.82;99343.02;214902;1277;140547;-73
2023/09/21 06:34:06;;;;;;;6.20;5.20;;;;;;;16.46;82.70;99345.51;215599;1276;140027;-73
2023/09/21 06:39:11;;;;;;;4.30;3.90;;;;;;;16.68;82.56;99339.73;217251;1277;141022;-72
2023/09/21 06:44:18;;;;;;;6.80;3.40;;;;;;;16.95;82.34;99340.05;217081;1276;140598;-71
2023/09/21 06:49:22;;;;;;;5.50;4.20;;;;;;;17.34;81.93;99336.30;217336;1279;141798;-74
2023/09/21 06:54:29;;;;;;;3.80;2.90;;;;;;;17.86;81.40;99333.63;215562;1279;140960;-73
2023/09/21 06:59:38;;;;;;;3.50;3.20;;;;;;;18.65;80.77;99335.81;214449;1277;141143;-74
2023/09/21 07:04:43;;;;;;;4.70;3.60;;;;;;;19.44;79.60;99337.80;215470;1279;140516;-73
2023/09/21 07:09:48;;;;;;;8.20;3.70;;;;;;;20.40;78.00;99337.17;214740;1279;139914;-76
2023/09/21 07:14:52;;;;;;;;;;;;;;;21.78;76.49;99339.55;215054;1276;160130;-72
2023/09/21 07:19:58;;;;;;;4.30;3.60;;;;;;;23.14;74.69;99339.00;215587;1280;126073;-73
2023/09/21 07:25:03;;;;;;;4.30;3.20;;;;;;;24.39;72.55;99341.33;214732;1279;139713;-73
2023/09/21 07:30:08;;;;;;;4.30;2.60;;;;;;;25.34;70.55;99336.45;215368;1279;139108;-73
2023/09/21 07:35:14;;;;;;;2.90;2.50;;;;;;;25.81;68.24;99332.05;215325;1277;600378;-70
2023/09/21 07:40:18;;;;;;;3.80;2.70;;;;;;;26.09;66.69;99338.55;215588;1275;139589;-70
2023/09/21 07:45:22;;;;;;;2.30;2.00;;;;;;;26.16;64.64;99340.23;214770;1275;140241;-70
2023/09/21 07:50:27;;;;;;;2.60;2.40;;;;;;;26.26;63.85;99340.73;215843;1279;139530;-71
2023/09/21 07:55:34;;;;;;;2.80;2.30;;;;;;;26.33;63.00;99337.66;214852;1279;139388;-70
2023/09/21 08:00:39;;;;;;;2.20;2.10;;;;;;;26.33;61.83;99333.45;215247;1276;140021;-69
2023/09/21 08:05:44;;;;;;;4.70;2.70;;;;;;;26.28;61.11;99331.83;214941;1279;140463;-70
2023/09/21 08:10:52;;;;;;;6.20;2.60;;;;;;;26.06;60.32;99326.13;215510;1276;139969;-69
2023/09/21 08:15:56;;;;;;;3.00;2.30;;;;;;;26.21;60.83;99324.30;216275;1276;140113;-70
2023/09/21 08:21:01;;;;;;;2.40;2.10;;;;;;;26.31;60.16;99316.38;215031;1279;139656;-70
2023/09/21 08:26:04;;;;;;;2.60;2.40;;;;;;;26.34;59.49;99308.20;215848;1279;139526;-70
2023/09/21 08:31:10;;;;;;;5.00;2.50;;;;;;;26.36;59.26;99307.55;214755;1279;139418;-71
2023/09/21 08:36:15;;;;;;;2.90;2.30;;;;;;;26.41;59.04;99307.45;216652;1276;140262;-73
2023/09/21 08:41:20;;;;;;;5.20;2.20;;;;;;;26.46;57.91;99303.03;215701;1276;139540;-73
2023/09/21 08:46:24;;;;;;;1.80;1.70;;;;;;;26.39;57.52;99303.96;217481;1276;139682;-74
2023/09/21 08:51:32;;;;;;;4.00;2.80;;;;;;;26.52;57.45;99303.67;217378;1276;139806;-73
2023/09/21 08:56:38;;;;;;;2.90;2.70;;;;;;;26.70;56.98;99302.02;216093;1277;140183;-74
2023/09/21 09:01:42;;;;;;;4.60;2.60;;;;;;;26.91;57.18;99305.13;216364;1276;139599;-73
2023/09/21 09:06:46;;;;;;;3.70;2.60;;;;;;;27.02;56.18;99303.99;216809;1276;139638;-70
2023/09/21 09:11:51;;;;;;;2.50;1.50;;;;;;;27.14;55.85;99297.27;217282;1276;140304;-70
2023/09/21 09:16:55;;;;;;;1.90;1.80;;;;;;;27.09;54.82;99295.52;215115;1276;139455;-70
2023/09/21 09:22:02;;;;;;;2.30;2.10;;;;;;;27.17;54.37;99296.23;214682;1276;139850;-69
2023/09/21 09:27:08;;;;;;;2.80;2.40;;;;;;;27.16;53.99;99294.57;215106;1276;141340;-70
2023/09/21 09:32:14;;;;;;;2.20;2.10;;;;;;;27.10;53.43;99288.10;214833;1279;140045;-70
2023/09/21 09:37:18;;;;;;;2.70;2.00;;;;;;;27.12;53.56;99282.36;214526;1277;139977;-70
2023/09/21 09:42:22;;;;;;;4.00;2.30;;;;;;;27.24;53.21;99278.40;214649;1277;139205;-70
2023/09/21 09:47:32;;;;;;;4.60;2.60;;;;;;;27.18;52.57;99279.29;215472;1276;139834;-69
2023/09/21 09:52:43;;;;;;;3.80;2.40;;;;;;;27.30;52.45;99276.98;214712;1277;139387;-70
2023/09/21 09:57:48;;;;;;;5.50;2.20;;;;;;;27.43;52.47;99268.98;215070;1276;139278;-68
2023/09/21 10:02:57;;;;;;;3.20;2.50;;;;;;;27.50;51.80;99265.55;215210;1276;139233;-71
2023/09/21 10:08:03;;;;;;;2.30;1.80;;;;;;;27.62;51.34;99263.15;215637;1275;141073;-68
2023/09/21 10:13:09;;;;;;;2.50;2.00;;;;;;;27.60;51.52;99258.23;214851;1276;139127;-73
2023/09/21 10:18:14;;;;;;;4.00;2.60;;;;;;;27.66;50.83;99248.05;214835;1276;139138;-70
2023/09/21 10:23:19;;;;;;;5.50;2.40;;;;;;;27.88;50.95;99248.04;215747;1276;140257;-71
2023/09/21 10:28:28;;;;;;;3.80;2.00;;;;;;;28.05;50.09;99245.77;214822;1278;140122;-68
2023/09/21 10:33:56;;;;;;;6.30;2.70;;;;;;;28.08;49.72;99233.92;215122;1276;140179;-70
2023/09/21 10:39:12;;;;;;;10.70;2.50;;;;;;;28.15;49.33;99230.05;214908;1279;139964;-69
2023/09/21 10:44:59;;;;;;;10.90;2.90;;;;;;;28.28;49.06;99220.14;215601;1277;139978;-69
2023/09/21 10:50:16;;;;;;;13.40;2.90;;;;;;;28.35;48.64;99213.77;215564;1277;139716;-67
2023/09/21 10:55:21;;;;;;;2.50;2.30;;;;;;;28.39;48.73;99213.38;215251;1276;139676;-70
2023/09/21 11:00:28;;;;;;;2.20;2.00;;;;;;;28.53;48.59;99207.64;215230;1277;140440;-70
2023/09/21 11:05:34;;;;;;;2.70;2.00;;;;;;;28.59;47.80;99202.58;215248;1277;140114;-71
2023/09/21 11:10:37;;;;;;;2.90;1.90;;;;;;;28.49;46.91;99195.52;215253;1279;139705;-70
2023/09/21 11:15:40;;;;;;;2.30;2.10;;;;;;;28.39;47.25;99187.05;214838;1276;139578;-69
2023/09/21 11:20:47;;;;;;;4.90;2.40;;;;;;;28.51;47.31;99183.09;214925;1277;139422;-70
2023/09/21 11:25:52;;;;;;;13.10;2.30;;;;;;;28.63;47.17;99173.23;214657;1276;140562;-74
2023/09/21 11:30:58;;;;;;;2.80;2.30;;;;;;;28.64;46.06;99168.56;215501;1275;140530;-70
2023/09/21 11:36:06;;;;;;;4.80;2.20;;;;;;;28.59;45.81;99163.15;214672;1276;139958;-69
2023/09/21 11:41:11;;;;;;;6.90;2.40;;;;;;;28.74;45.66;99156.72;215179;1277;139418;-69
2023/09/21 11:46:18;;;;;;;1.60;1.50;;;;;;;28.84;45.10;99146.62;214764;1276;139565;-69
2023/09/21 11:51:28;;;;;;;1.50;1.40;;;;;;;28.89;44.85;99137.27;214818;1276;139811;-69
2023/09/21 11:56:37;;;;;;;2.20;1.40;;;;;;;28.78;44.56;99125.81;214851;1276;139409;-69
2023/09/21 12:01:41;;;;;;;1.20;1.10;;;;;;;28.73;44.17;99118.86;215085;1275;139697;-71
2023/09/21 12:06:46;;;;;;;1.60;1.50;;;;;;;28.78;43.98;99106.79;214601;1276;139834;-68
2023/09/21 12:11:53;;;;;;;2.70;1.10;;;;;;;28.97;44.11;99095.31;214632;1276;140249;-71
2023/09/21 12:17:02;;;;;;;1.60;1.20;;;;;;;28.99;43.02;99091.73;215513;1279;140240;-69
2023/09/21 12:22:07;;;;;;;4.20;1.20;;;;;;;28.82;41.99;99090.53;215641;1279;141369;-74
2023/09/21 12:27:10;;;;;;;2.10;0.90;;;;;;;28.62;42.01;99081.55;214830;1279;140197;-73
2023/09/21 12:32:16;;;;;;;3.60;1.10;;;;;;;28.53;41.77;99075.63;215093;1275;139264;-74
2023/09/21 12:37:22;;;;;;;3.30;0.80;;;;;;;28.42;41.51;99071.33;215027;1276;139553;-74
2023/09/21 12:42:27;;;;;;;0.70;0.70;;;;;;;28.35;41.16;99070.22;215517;1279;139968;-74
2023/09/21 12:47:35;;;;;;;2.20;1.10;;;;;;;28.33;41.67;99067.20;215899;1279;139346;-74
2023/09/21 12:52:42;;;;;;;1.40;1.00;;;;;;;28.28;41.38;99056.63;215131;1279;139664;-73
2023/09/21 12:57:47;;;;;;;1.10;1.00;;;;;;;28.18;41.21;99049.73;214917;1276;139353;-72
2023/09/21 13:02:52;;;;;;;1.70;0.70;;;;;;;28.18;41.48;99048.07;215444;1276;140346;-77
2023/09/21 13:07:56;;;;;;;5.30;1.00;;;;;;;28.16;40.53;99045.31;214797;1275;139350;-70
2023/09/21 13:13:01;;;;;;;1.20;1.10;;;;;;;28.06;40.34;99043.35;214994;1276;138883;-75
2023/09/21 13:18:05;;;;;;;1.20;1.00;;;;;;;28.11;40.76;99033.57;215377;1275;140428;-75
2023/09/21 13:23:09;;;;;;;3.40;1.20;;;;;;;28.08;40.32;99031.17;215182;1276;140831;-72
2023/09/21 13:28:14;;;;;;;1.10;0.90;;;;;;;28.08;40.47;99019.75;214775;1276;140102;-74
2023/09/21 13:33:17;;;;;;;4.10;1.60;;;;;;;28.06;39.75;99015.33;214887;1276;139933;-74
2023/09/21 13:38:22;;;;;;;1.00;1.00;;;;;;;27.98;39.88;99009.10;215257;1276;139129;-79
2023/09/21 13:43:27;;;;;;;2.40;1.40;;;;;;;27.91;39.91;99008.90;215096;1279;139088;-72
2023/09/21 13:48:33;;;;;;;1.20;1.00;;;;;;;27.86;40.48;99004.05;215049;1279;140340;-75
2023/09/21 13:53:36;;;;;;;1.20;1.10;;;;;;;27.75;40.56;99006.40;215017;1276;139880;-69
2023/09/21 13:58:40;;;;;;;1.30;1.20;;;;;;;27.60;40.63;99000.97;215007;1279;140623;-79
2023/09/21 14:03:50;;;;;;;3.30;1.20;;;;;;;27.45;40.79;98994.14;214889;1275;235089;-72
2023/09/21 14:08:53;;;;;;;3.10;1.30;;;;;;;27.32;40.68;98988.98;215786;1279;139197;-71
2023/09/21 14:13:57;;;;;;;2.50;1.30;;;;;;;27.22;40.67;98982.84;214943;1277;140366;-71
2023/09/21 14:19:01;;;;;;;2.30;1.30;;;;;;;27.21;41.28;98978.52;215162;1279;141635;-70
2023/09/21 14:24:07;;;;;;;4.30;1.60;;;;;;;27.09;40.78;98977.07;214877;1276;139813;-69
2023/09/21 14:29:11;;;;;;;2.00;1.90;;;;;;;26.95;41.27;98973.17;215528;1275;139674;-72
2023/09/21 14:34:14;;;;;;;1.90;1.40;;;;;;;26.90;41.31;98970.33;216790;1276;139991;-81
2023/09/21 14:39:19;;;;;;;7.60;1.20;;;;;;;26.85;41.41;98963.30;215043;1277;139590;-83
2023/09/21 14:44:23;;;;;;;3.60;1.80;;;;;;;26.81;41.57;98957.38;215410;1278;140332;-81
2023/09/21 14:49:28;;;;;;;1.30;1.20;;;;;;;26.72;41.99;98954.75;215063;1279;141853;-80
2023/09/21 14:54:31;;;;;;;4.70;1.90;;;;;;;26.60;42.30;98953.58;215706;1275;139542;-78
2023/09/21 14:59:40;;;;;;;3.50;1.70;;;;;;;26.50;42.76;98949.57;216170;1275;140083;-72
2023/09/21 15:04:43;;;;;;;5.70;1.90;;;;;;;26.34;43.00;98953.98;215301;1276;141081;-70
2023/09/21 15:09:47;;;;;;;6.80;2.10;;;;;;;26.19;43.53;98951.16;214910;1276;141636;-71
2023/09/21 15:14:49;;;;;;;2.40;2.20;;;;;;;26.08;43.90;98946.05;215100;1276;140775;-70
2023/09/21 15:19:53;;;;;;;2.60;2.30;;;;;;;25.96;44.41;98947.12;215342;1275;139232;-80
2023/09/21 15:24:56;;;;;;;4.30;2.30;;;;;;;25.80;44.94;98948.63;215325;1279;139812;-77
2023/09/21 15:30:00;;;;;;;3.60;2.40;;;;;;;25.67;45.50;98948.48;215431;1276;139823;-79
2023/09/21 15:35:04;;;;;;;2.20;2.10;;;;;;;25.54;45.91;98946.89;215615;1275;139311;-71
2023/09/21 15:40:08;;;;;;;3.10;2.10;;;;;;;25.42;46.52;98945.27;215268;1276;139674;-73
2023/09/21 15:45:14;;;;;;;2.60;2.40;;;;;;;25.18;46.96;98942.88;215229;1276;140208;-70
2023/09/21 15:50:17;;;;;;;3.00;2.80;;;;;;;24.87;47.56;98939.29;215440;1276;139346;-72
2023/09/21 15:55:21;;;;;;;2.70;2.10;;;;;;;24.64;48.26;98933.52;214948;1277;139624;-79
2023/09/21 16:00:24;;;;;;;8.50;3.10;;;;;;;24.43;48.56;98926.94;215179;1279;140287;-77
2023/09/21 16:05:29;;;;;;;2.60;2.40;;;;;;;24.17;49.16;98922.52;215275;1276;139871;-80
2023/09/21 16:10:32;;;;;;;9.10;3.00;;;;;;;23.99;49.51;98927.66;215372;1279;138959;-69
2023/09/21 16:15:36;;;;;;;2.90;2.60;;;;;;;23.80;50.19;98926.98;215288;1276;139158;-75
2023/09/21 16:20:40;;;;;;;3.20;2.80;;;;;;;23.64;50.53;98929.14;215627;1276;139944;-73
2023/09/21 16:25:43;;;;;;;2.90;2.70;;;;;;;23.48;50.86;98923.70;215259;1275;153309;-69
2023/09/21 16:30:47;;;;;;;2.10;2.00;;;;;;;23.34;51.22;98923.48;215029;1276;139209;-71
2023/09/21 16:35:54;;;;;;;3.10;2.40;;;;;;;23.18;51.66;98924.83;214739;1276;140068;-73
2023/09/21 16:41:04;;;;;;;4.40;2.70;;;;;;;23.04;51.98;98921.23;215282;1277;140385;-76
2023/09/21 16:46:09;;;;;;;3.20;2.90;;;;;;;22.92;52.19;98919.20;216559;1276;139291;-72
2023/09/21 16:51:25;;;;;;;4.40;2.90;;;;;;;22.72;52.52;98915.98;216445;1275;139617;-82
2023/09/21 16:56:38;;;;;;;4.10;3.10;;;;;;;22.56;53.30;98913.47;216024;1278;140103;-80
2023/09/21 17:01:49;;;;;;;7.10;2.70;;;;;;;22.39;53.56;98911.45;215321;1276;139949;-70
2023/09/21 17:06:53;;;;;;;3.10;2.80;;;;;;;22.25;53.98;98909.48;215654;1276;139390;-80
2023/09/21 17:11:58;;;;;;;11.60;2.90;;;;;;;22.10;54.48;98916.66;215162;1276;140371;-77
2023/09/21 17:17:03;;;;;;;3.40;2.10;;;;;;;21.95;54.74;98914.91;215860;1275;139754;-75
2023/09/21 17:22:07;;;;;;;4.30;2.40;;;;;;;21.79;55.20;98914.13;215055;1276;140453;-75
2023/09/21 17:27:12;;;;;;;2.70;2.40;;;;;;;21.67;55.57;98913.77;215031;1279;139826;-78
2023/09/21 17:32:17;;;;;;;2.70;2.50;;;;;;;21.51;56.02;98913.42;215109;1279;139518;-76
2023/09/21 17:37:21;;;;;;;2.20;1.90;;;;;;;21.40;56.18;98917.92;215650;1275;140068;-76
2023/09/21 17:42:27;;;;;;;4.40;2.40;;;;;;;21.32;56.32;98919.71;215490;1274;140197;-77
2023/09/21 17:47:31;;;;;;;7.40;3.10;;;;;;;21.29;56.54;98917.46;215184;1276;139999;-78
2023/09/21 17:52:35;;;;;;;6.30;3.00;;;;;;;21.25;56.73;98917.76;215241;1279;140359;-78
2023/09/21 17:57:39;;;;;;;3.80;2.30;;;;;;;21.18;56.99;98916.55;215008;1276;139098;-80
2023/09/21 18:02:45;;;;;;;2.60;2.40;;;;;;;21.07;57.33;98913.71;215185;1275;139938;-81
2023/09/21 18:07:49;;;;;;;3.70;2.40;;;;;;;20.94;57.58;98911.13;214757;1279;139846;-80
2023/09/21 18:12:53;;;;;;;2.90;2.60;;;;;;;20.80;57.78;98913.39;215904;1275;138956;-76
2023/09/21 18:18:01;;;;;;;21.90;4.90;;;;;;;20.67;58.23;98909.76;215824;1276;139525;-76
2023/09/21 18:23:11;;;;;;;3.20;2.30;;;;;;;20.55;58.77;98906.13;215291;1275;139278;-76
2023/09/21 18:28:16;;;;;;;5.40;2.80;;;;;;;20.51;59.23;98903.08;215028;1276;139462;-71
2023/09/21 18:33:22;;;;;;;3.00;2.30;;;;;;;20.52;59.58;98900.48;216253;1275;139694;-70
2023/09/21 18:38:31;;;;;;;3.80;2.50;;;;;;;20.54;59.93;98901.54;216872;1276;140171;-77
2023/09/21 18:43:37;;;;;;;3.60;3.10;;;;;;;20.54;60.27;98895.61;217347;1275;138975;-77
2023/09/21 18:48:41;;;;;;;3.40;2.50;;;;;;;20.53;60.43;98899.50;216821;1276;140403;-76
2023/09/21 18:53:46;;;;;;;3.10;2.70;;;;;;;20.50;60.74;98893.30;217106;1276;140576;-77
2023/09/21 18:58:50;;;;;;;5.90;3.60;;;;;;;20.49;60.87;98896.41;216305;1275;140518;-73
2023/09/21 19:03:58;;;;;;;6.70;2.70;;;;;;;20.45;61.11;98893.00;215287;1276;143766;-76
2023/09/21 19:09:05;;;;;;;8.10;2.70;;;;;;;20.39;61.33;98894.14;215464;1276;140140;-76
2023/09/21 19:14:08;;;;;;;2.80;2.50;;;;;;;20.32;61.60;98892.72;215190;1276;140295;-77
2023/09/21 19:19:13;;;;;;;5.00;3.10;;;;;;;20.23;61.93;98884.88;215109;1276;140067;-78
2023/09/21 19:24:19;;;;;;;5.20;2.60;;;;;;;20.17;62.23;98882.91;214941;1276;140132;-75
2023/09/21 19:29:25;;;;;;;2.60;2.40;;;;;;;20.12;62.56;98881.14;215359;1276;140119;-77
2023/09/21 19:34:32;;;;;;;;;;;;;;;20.05;62.71;98877.05;214089;1276;1797193;-76
2023/09/21 19:39:36;;;;;;;2.90;2.70;;;;;;;19.98;63.07;98877.16;215317;1275;127230;-76
2023/09/21 19:44:40;;;;;;;3.30;2.80;;;;;;;19.93;63.27;98873.66;214869;1274;140036;-70
2023/09/21 19:49:44;;;;;;;4.40;2.80;;;;;;;19.88;63.52;98870.29;215163;1279;140931;-75
2023/09/21 19:54:51;;;;;;;6.60;2.40;;;;;;;19.82;63.72;98868.67;216000;1276;140033;-76
2023/09/21 19:59:56;;;;;;;2.50;2.30;;;;;;;19.76;63.97;98863.60;215192;1275;140769;-74
2023/09/21 20:05:06;;;;;;;6.10;2.80;;;;;;;19.71;64.22;98867.11;215670;1275;140514;-75
2023/09/21 20:10:14;;;;;;;5.60;2.40;;;;;;;19.65;64.38;98863.35;214740;1276;141249;-76
2023/09/21 20:15:19;;;;;;;5.20;2.50;;;;;;;19.59;64.46;98859.08;215410;1275;141120;-75
2023/09/21 20:20:23;;;;;;;2.60;2.00;;;;;;;19.53;64.91;98856.70;215562;1276;141857;-75
2023/09/21 20:25:27;;;;;;;5.00;2.40;;;;;;;19.47;65.04;98852.60;215321;1276;141308;-72
2023/09/21 20:30:31;;;;;;;2.50;1.70;;;;;;;19.39;65.24;98843.29;215511;1279;142598;-75
2023/09/21 20:35:37;;;;;;;4.10;3.60;;;;;;;19.34;65.45;98836.60;217208;1276;140567;-76
2023/09/21 20:40:40;;;;;;;3.40;2.70;;;;;;;19.28;65.68;98832.92;215894;1276;140044;-76
2023/09/21 20:45:45;;;;;;;4.30;3.00;;;;;;;19.23;65.68;98833.95;215248;1276;140909;-76
2023/09/21 20:50:50;;;;;;;;;;;;;;;19.18;65.87;98834.34;217307;1276;140962;-76
2023/09/21 20:55:56;;;;;;;6.70;2.80;;;;;;;19.09;66.17;98829.28;216546;1276;126864;-76
2023/09/21 21:01:05;;;;;;;3.10;2.70;;;;;;;19.04;66.42;98820.36;215999;1276;140224;-75
2023/09/21 21:06:09;;;;;;;4.90;2.60;;;;;;;18.97;66.58;98821.25;216158;1276;141067;-75
2023/09/21 21:11:13;;;;;;;3.70;3.20;;;;;;;18.95;66.76;98814.69;216179;1276;140815;-76
2023/09/21 21:16:16;;;;;;;3.90;2.70;;;;;;;18.93;67.00;98813.00;214841;1276;140077;-75
2023/09/21 21:21:21;;;;;;;4.40;2.80;;;;;;;18.91;67.15;98807.55;215372;1276;139937;-75
2023/09/21 21:26:25;;;;;;;3.40;3.10;;;;;;;18.88;67.09;98806.77;215002;1279;141617;-77
2023/09/21 21:31:29;;;;;;;11.40;3.30;;;;;;;18.80;67.37;98800.77;215219;1276;140267;-77
2023/09/21 21:36:34;;;;;;;3.10;2.80;;;;;;;18.73;67.46;98797.39;215562;1276;142872;-75
2023/09/21 21:41:38;;;;;;;4.90;2.60;;;;;;;18.71;67.75;98792.41;216009;1276;139805;-75
2023/09/21 21:46:42;;;;;;;3.10;2.80;;;;;;;18.71;68.10;98791.00;214901;1275;141221;-77
2023/09/21 21:51:48;;;;;;;3.30;2.40;;;;;;;18.74;68.09;98785.14;215301;1276;139993;-77
2023/09/21 21:56:54;;;;;;;5.80;3.10;;;;;;;18.77;68.52;98777.88;215128;1276;141581;-77
2023/09/21 22:01:58;;;;;;;4.00;3.00;;;;;;;18.81;68.61;98779.39;214553;1277;140911;-76
2023/09/21 22:07:02;;;;;;;2.40;2.20;;;;;;;18.84;68.49;98773.91;215537;1276;140637;-76
2023/09/21 22:12:10;;;;;;;6.40;2.90;;;;;;;18.87;68.50;98769.73;215145;1277;140038;-73
2023/09/21 22:17:14;;;;;;;2.50;2.10;;;;;;;18.90;68.61;98770.48;214802;1276;140462;-74
2023/09/21 22:22:18;;;;;;;2.80;2.60;;;;;;;18.91;68.56;98764.77;215584;1275;140262;-75
2023/09/21 22:27:22;;;;;;;3.50;2.50;;;;;;;18.87;68.43;98760.45;216733;1275;140540;-76
2023/09/21 22:32:26;;;;;;;6.90;2.90;;;;;;;18.83;68.39;98761.04;216555;1275;139744;-76
2023/09/21 22:37:34;;;;;;;3.60;3.00;;;;;;;18.79;68.53;98759.75;216295;1276;140115;-75
2023/09/21 22:42:40;;;;;;;6.50;2.50;;;;;;;18.77;68.60;98762.12;214976;1277;142787;-76
2023/09/21 22:47:53;;;;;;;3.30;3.00;;;;;;;18.75;68.66;98756.88;216278;1276;140400;-75
2023/09/21 22:52:56;;;;;;;3.40;2.70;;;;;;;18.70;68.51;98756.05;216501;1275;140447;-76
2023/09/21 22:57:59;;;;;;;3.10;2.60;;;;;;;18.65;68.54;98753.28;215052;1276;141638;-75
2023/09/21 23:03:03;;;;;;;2.50;2.30;;;;;;;18.60;68.57;98751.64;215680;1276;141059;-72
2023/09/21 23:08:06;;;;;;;3.50;3.20;;;;;;;18.56;68.69;98749.67;216316;1276;140007;-70
2023/09/21 23:13:09;;;;;;;2.70;2.30;;;;;;;18.56;68.79;98750.36;215050;1276;141406;-76
2023/09/21 23:18:13;;;;;;;4.20;3.10;;;;;;;18.55;68.89;98749.53;215649;1276;141542;-76
2023/09/21 23:23:16;;;;;;;5.50;3.70;;;;;;;18.55;69.03;98747.81;214912;1277;140944;-76